Time,TemperatureF,DewpointF,PressureIn,WindDirection,WindDirectionDegrees,WindSpeedMPH,WindSpeedGustMPH,Humidity,HourlyPrecipIn,Conditions,Clouds,dailyrainin,SoftwareType,DateUTC
2013-08-14 00:00:00,55.0,-99.9,30.05,NNE,30,1.0,-999.0,-999,-99.99,,,-99.99,,2013-08-14 05:00:00,
2013-08-14 00:42:00,55.0,-99.9,30.05,NNE,30,1.0,-999.0,-999,-99.99,,,-99.99,,2013-08-14 05:42:00,
2013-08-14 00:52:00,55.0,-99.9,30.05,NNE,30,1.0,-999.0,-999,-99.99,,,-99.99,,2013-08-14 05:52:00,
2013-08-14 01:00:00,54.0,-99.9,30.05,West,260,2.0,-999.0,-999,-99.99,,,-99.99,,2013-08-14 06:00:00,
2013-08-14 01:42:00,54.0,-99.9,30.05,West,260,2.0,-999.0,-999,-99.99,,,-99.99,,2013-08-14 06:42:00,
2013-08-14 01:52:00,54.0,-99.9,30.05,West,260,2.0,-999.0,-999,-99.99,,,-99.99,,2013-08-14 06:52:00,
2013-08-14 02:00:00,54.0,-99.9,30.05,ESE,110,1.0,-999.0,-999,-99.99,,,-99.99,,2013-08-14 07:00:00,
2013-08-14 02:42:00,54.0,-99.9,30.05,ESE,110,1.0,-999.0,-999,-99.99,,,-99.99,,2013-08-14 07:42:00,
2013-08-14 02:52:00,54.0,-99.9,30.05,ESE,110,1.0,-999.0,-999,-99.99,,,-99.99,,2013-08-14 07:52:00,
2013-08-14 03:00:00,54.0,-99.9,30.05,NNE,20,1.0,-999.0,-999,-99.99,,,-99.99,,2013-08-14 08:00:00,
2013-08-14 03:42:00,54.0,-99.9,30.05,NNE,20,1.0,-999.0,-999,-99.99,,,-99.99,,2013-08-14 08:42:00,
2013-08-14 03:52:00,54.0,-99.9,30.05,NNE,20,1.0,-999.0,-999,-99.99,,,-99.99,,2013-08-14 08:52:00,
2013-08-14 04:00:00,54.0,-99.9,30.05,East,100,2.0,-999.0,-999,-99.99,,,-99.99,,2013-08-14 09:00:00,
2013-08-14 04:43:00,54.0,-99.9,30.05,East,100,2.0,-999.0,-999,-99.99,,,-99.99,,2013-08-14 09:43:00,
2013-08-14 04:53:00,54.0,-99.9,30.05,East,100,2.0,-999.0,-999,-99.99,,,-99.99,,2013-08-14 09:53:00,
2013-08-14 05:00:00,55.0,-99.9,30.07,East,100,1.0,-999.0,-999,-99.99,,,-99.99,,2013-08-14 10:00:00,
2013-08-14 05:43:00,55.0,-99.9,30.07,East,100,1.0,-999.0,-999,-99.99,,,-99.99,,2013-08-14 10:43:00,
2013-08-14 05:53:00,55.0,-99.9,30.07,East,100,1.0,-999.0,-999,-99.99,,,-99.99,,2013-08-14 10:53:00,
2013-08-14 06:00:00,54.0,-99.9,30.09,ENE,60,1.0,-999.0,-999,-99.99,,,-99.99,,2013-08-14 11:00:00,
2013-08-14 06:42:00,54.0,-99.9,30.09,ENE,60,1.0,-999.0,-999,-99.99,,,-99.99,,2013-08-14 11:42:00,
2013-08-14 06:52:00,54.0,-99.9,30.09,ENE,60,1.0,-999.0,-999,-99.99,,,-99.99,,2013-08-14 11:52:00,
2013-08-14 07:00:00,55.0,-99.9,30.10,ESE,120,2.0,-999.0,-999,-99.99,,,-99.99,,2013-08-14 12:00:00,
2013-08-14 07:42:00,55.0,-99.9,30.10,ESE,120,2.0,-999.0,-999,-99.99,,,-99.99,,2013-08-14 12:42:00,
2013-08-14 07:52:00,55.0,-99.9,30.10,ESE,120,2.0,-999.0,-999,-99.99,,,-99.99,,2013-08-14 12:52:00,
2013-08-14 08:00:00,58.0,-99.9,30.11,West,280,11.0,-999.0,-999,-99.99,,,-99.99,,2013-08-14 13:00:00,
2013-08-14 08:42:00,58.0,-99.9,30.11,West,280,11.0,-999.0,-999,-99.99,,,-99.99,,2013-08-14 13:42:00,
2013-08-14 08:52:00,58.0,-99.9,30.11,West,280,11.0,-999.0,-999,-99.99,,,-99.99,,2013-08-14 13:52:00,
2013-08-14 09:00:00,61.0,-99.9,30.12,WNW,290,13.0,-999.0,-999,-99.99,,,-99.99,,2013-08-14 14:00:00,
2013-08-14 09:42:00,61.0,-99.9,30.12,WNW,290,13.0,-999.0,-999,-99.99,,,-99.99,,2013-08-14 14:42:00,
2013-08-14 09:52:00,61.0,-99.9,30.12,WNW,290,13.0,-999.0,-999,-99.99,,,-99.99,,2013-08-14 14:52:00,
2013-08-14 10:00:00,61.0,-99.9,30.12,NW,310,15.0,-999.0,-999,-99.99,,,-99.99,,2013-08-14 15:00:00,
2013-08-14 10:44:00,61.0,-99.9,30.12,NW,310,15.0,-999.0,-999,-99.99,,,-99.99,,2013-08-14 15:44:00,
2013-08-14 10:57:00,61.0,-99.9,30.12,NW,310,15.0,-999.0,-999,-99.99,,,-99.99,,2013-08-14 15:57:00,
2013-08-14 11:00:00,62.0,-99.9,30.11,NNW,340,20.0,-999.0,-999,-99.99,,,-99.99,,2013-08-14 16:00:00,
2013-08-14 11:43:00,62.0,-99.9,30.11,NNW,340,20.0,-999.0,-999,-99.99,,,-99.99,,2013-08-14 16:43:00,
2013-08-14 23:00:00,60.0,-99.9,30.09,West,260,17.0,-999.0,-999,-99.99,,,-99.99,,2013-08-15 04:00:00,
2013-08-14 23:43:00,60.0,-99.9,30.09,West,260,17.0,-999.0,-999,-99.99,,,-99.99,,2013-08-15 04:43:00,
2013-08-14 23:52:00,60.0,-99.9,30.09,West,260,17.0,-999.0,-999,-99.99,,,-99.99,,2013-08-15 04:52:00,